createdAt,value
2018-06-05T00:01:16.090Z,14.27
2018-06-05T00:03:44.621Z,13.90
2018-06-05T00:06:13.077Z,12.00
2018-06-05T00:08:41.617Z,12.93
2018-06-05T00:11:10.054Z,12.60
2018-06-05T00:13:38.506Z,13.80
2018-06-05T00:16:07.772Z,14.47
2018-06-05T00:18:36.215Z,15.70
2018-06-05T00:21:04.694Z,15.90
2018-06-05T00:23:33.173Z,15.27
2018-06-05T00:26:01.631Z,15.70
2018-06-05T00:28:30.751Z,13.73
2018-06-05T00:30:59.250Z,14.40
2018-06-05T00:33:27.711Z,13.73
2018-06-05T00:35:56.158Z,13.07
2018-06-05T00:38:25.324Z,14.10
2018-06-05T00:40:54.346Z,14.23
2018-06-05T00:43:22.802Z,13.33
2018-06-05T00:45:51.949Z,15.87
2018-06-05T00:48:20.446Z,15.40
2018-06-05T00:50:48.911Z,14.70
2018-06-05T00:53:17.458Z,14.50
2018-06-05T00:55:45.970Z,13.63
2018-06-05T01:07:23.804Z,14.20
2018-06-05T01:09:52.305Z,13.93
2018-06-05T01:12:20.763Z,13.30
2018-06-05T01:14:49.283Z,13.93
2018-06-05T01:17:17.742Z,14.23
2018-06-05T01:19:46.179Z,13.47
2018-06-05T01:31:35.266Z,13.90
2018-06-05T01:34:03.738Z,16.93
2018-06-05T01:36:32.174Z,15.73
2018-06-05T01:39:00.658Z,16.90
2018-06-05T01:41:29.110Z,16.93
2018-06-05T01:43:57.566Z,15.93
2018-06-05T01:46:26.038Z,15.10
2018-06-05T01:48:54.773Z,15.53
2018-06-05T01:51:23.225Z,15.20
2018-06-05T01:53:52.055Z,14.50
2018-06-05T01:56:20.541Z,17.57
2018-06-05T01:58:48.993Z,17.90
2018-06-05T02:01:17.538Z,17.42
2018-06-05T02:03:45.982Z,16.57
2018-06-05T02:06:15.603Z,16.97
2018-06-05T02:08:44.050Z,16.33
2018-06-05T02:11:12.502Z,17.60
2018-06-05T02:13:40.937Z,16.73
2018-06-05T02:16:09.774Z,15.27
2018-06-05T02:18:38.199Z,17.07
2018-06-05T02:21:06.657Z,19.13
2018-06-05T02:23:35.140Z,16.30
2018-06-05T02:26:03.602Z,16.30
2018-06-05T02:28:32.074Z,16.93
2018-06-05T02:31:00.553Z,15.60
2018-06-05T02:33:29.736Z,16.23
2018-06-05T02:35:58.199Z,16.27
2018-06-05T02:38:27.357Z,15.73
2018-06-05T02:40:55.808Z,16.70
2018-06-05T02:43:24.274Z,16.27
2018-06-05T02:45:52.774Z,15.00
2018-06-05T02:48:21.276Z,16.45
2018-06-05T02:50:49.730Z,15.30
2018-06-05T02:53:18.389Z,14.60
2018-06-05T02:55:46.873Z,15.23
2018-06-05T03:07:20.685Z,14.78
2018-06-05T03:09:49.126Z,15.40
2018-06-05T03:12:17.600Z,14.03
2018-06-05T03:14:46.073Z,13.47
2018-06-05T03:31:34.341Z,13.60
2018-06-05T03:34:03.317Z,13.90
2018-06-05T03:36:31.846Z,13.55
2018-06-05T03:39:00.378Z,12.15
2018-06-05T03:41:30.079Z,12.93
2018-06-05T03:43:58.602Z,13.37
2018-06-05T03:46:27.074Z,13.18
2018-06-05T03:48:55.517Z,13.70
2018-06-05T03:51:23.985Z,11.90
2018-06-05T03:53:52.707Z,11.78
2018-06-05T03:56:21.167Z,12.65
2018-06-05T03:58:49.602Z,12.50
2018-06-05T04:01:18.091Z,12.20
2018-06-05T04:03:46.566Z,12.13
2018-06-05T04:06:16.586Z,13.00
2018-06-05T04:08:45.060Z,11.93
2018-06-05T04:30:36.511Z,12.88
2018-06-05T04:35:41.767Z,12.63
2018-06-05T04:38:10.287Z,13.77
2018-06-05T04:40:38.824Z,12.57
2018-06-05T04:43:07.319Z,13.10
2018-06-05T04:45:35.799Z,12.53
2018-06-05T04:48:04.295Z,12.40
2018-06-05T04:50:32.912Z,12.00
2018-06-05T04:53:01.659Z,12.00
2018-06-05T04:55:30.183Z,12.53
2018-06-05T04:57:58.577Z,11.70
2018-06-05T05:00:28.125Z,11.83
2018-06-05T05:02:56.410Z,11.47
2018-06-05T05:05:24.919Z,12.00
2018-06-05T05:07:53.418Z,11.30
2018-06-05T05:10:22.018Z,12.10
2018-06-05T05:12:50.551Z,11.43
2018-06-05T05:15:19.038Z,11.00
2018-06-05T05:17:47.522Z,12.03
2018-06-05T05:29:35.985Z,11.97
2018-06-05T05:32:04.491Z,12.07
2018-06-05T05:34:33.050Z,13.23
2018-06-05T05:37:01.880Z,13.00
2018-06-05T05:39:30.382Z,11.70
2018-06-05T05:41:58.870Z,11.53
2018-06-05T05:44:27.054Z,11.70
2018-06-05T05:46:55.618Z,10.73
2018-06-05T05:49:24.070Z,10.80
2018-06-05T05:51:52.921Z,10.60
2018-06-05T05:54:21.438Z,11.20
2018-06-05T05:56:49.904Z,10.77
2018-06-05T05:59:18.513Z,11.63
2018-06-05T06:01:47.051Z,11.27
2018-06-05T06:04:17.378Z,11.00
2018-06-05T06:06:45.935Z,11.20
2018-06-05T06:19:57.043Z,11.08
2018-06-05T06:22:25.583Z,10.00
2018-06-05T06:24:54.067Z,10.50
2018-06-05T06:27:22.587Z,9.63
2018-06-05T06:29:51.130Z,10.17
2018-06-05T06:32:19.624Z,10.48
2018-06-05T06:34:48.142Z,9.90
2018-06-05T06:37:18.073Z,9.60
2018-06-05T06:39:46.526Z,10.00
2018-06-05T07:00:23.778Z,9.43
2018-06-05T07:02:52.282Z,7.93
2018-06-05T07:05:20.871Z,7.75
2018-06-05T07:07:49.456Z,8.03
2018-06-05T07:10:18.000Z,7.90
2018-06-05T07:12:46.479Z,7.00
2018-06-05T07:31:33.866Z,7.47
2018-06-05T07:34:02.347Z,7.17
2018-06-05T07:36:30.822Z,7.93
2018-06-05T07:39:02.689Z,7.50
2018-06-05T07:41:32.241Z,7.70
2018-06-05T07:44:00.712Z,8.30
2018-06-05T07:46:29.196Z,7.90
2018-06-05T07:48:57.647Z,7.40
2018-06-05T07:51:25.798Z,8.27
2018-06-05T07:53:54.358Z,8.10
2018-06-05T07:56:22.947Z,8.17
2018-06-05T07:58:51.460Z,8.47
2018-06-05T08:01:19.974Z,7.60
2018-06-05T08:03:48.519Z,7.60
2018-06-05T08:06:17.576Z,7.27
2018-06-05T08:08:46.095Z,7.07
2018-06-05T08:17:21.706Z,7.50
2018-06-05T08:19:56.606Z,6.57
2018-06-05T08:22:29.262Z,7.03
2018-06-05T08:24:57.755Z,7.17
2018-06-05T08:27:26.291Z,8.60
2018-06-05T08:29:54.802Z,7.87
2018-06-05T08:32:23.296Z,6.83
2018-06-05T08:34:51.746Z,7.47
2018-06-05T08:37:21.055Z,6.70
2018-06-05T08:39:50.054Z,7.60
2018-06-05T08:42:18.590Z,6.90
2018-06-05T08:44:47.327Z,8.10
2018-06-05T09:06:38.849Z,7.37
2018-06-05T09:11:46.526Z,5.87
2018-06-05T09:25:05.629Z,6.10
2018-06-05T09:27:34.092Z,5.00
2018-06-05T09:30:02.534Z,4.93
2018-06-05T09:32:31.023Z,5.97
2018-06-05T09:34:59.468Z,5.57
2018-06-05T09:37:27.937Z,5.53
2018-06-05T09:39:57.278Z,5.03
2018-06-05T09:42:25.741Z,5.90
2018-06-05T09:44:54.183Z,6.20
2018-06-05T09:47:23.351Z,6.28
2018-06-05T09:49:51.779Z,5.87
2018-06-05T09:52:21.027Z,5.27
2018-06-05T09:54:49.546Z,5.87
2018-06-05T09:57:18.033Z,6.50
2018-06-05T09:59:46.542Z,5.30
2018-06-05T10:20:33.006Z,5.03
2018-06-05T10:23:03.313Z,7.67
2018-06-05T10:25:31.858Z,7.63
2018-06-05T10:28:00.402Z,7.00
2018-06-05T10:30:28.866Z,7.80
2018-06-05T10:32:57.336Z,10.47
2018-06-05T10:35:25.858Z,7.92
2018-06-05T10:37:54.322Z,8.83
2018-06-05T10:40:23.478Z,10.60
2018-06-05T10:42:52.450Z,8.77
2018-06-05T10:45:20.918Z,8.10
2018-06-05T10:47:49.398Z,9.13
2018-06-05T10:50:17.898Z,8.57
2018-06-05T10:52:46.486Z,8.13
2018-06-05T11:05:57.679Z,8.75
2018-06-05T11:08:26.126Z,7.90
2018-06-05T11:10:54.652Z,7.93
2018-06-05T11:13:23.147Z,7.43
2018-06-05T11:15:51.603Z,7.67
2018-06-05T11:18:20.444Z,7.00
2018-06-05T11:20:48.933Z,7.93
2018-06-05T11:23:17.502Z,8.03
2018-06-05T11:25:45.960Z,8.10
2018-06-05T11:31:35.024Z,7.62
2018-06-05T11:34:03.638Z,7.33
2018-06-05T11:36:32.147Z,8.30
2018-06-05T11:39:00.698Z,8.30
2018-06-05T11:41:30.515Z,7.65
2018-06-05T11:43:59.330Z,7.90
2018-06-05T11:46:27.975Z,7.80
2018-06-05T11:48:56.427Z,8.57
2018-06-05T11:51:25.090Z,8.03
2018-06-05T11:53:54.095Z,8.33
2018-06-05T11:56:22.826Z,8.33
2018-06-05T11:58:51.735Z,7.80
2018-06-05T12:01:20.440Z,7.47
2018-06-05T12:03:49.170Z,8.10
2018-06-05T12:06:17.881Z,7.23
2018-06-05T12:08:46.095Z,8.10
2018-06-05T12:17:30.762Z,8.83
2018-06-05T12:19:59.415Z,7.80
2018-06-05T12:22:28.261Z,8.37
2018-06-05T12:24:57.057Z,8.20
2018-06-05T12:27:25.766Z,7.80
2018-06-05T12:29:54.389Z,7.70
2018-06-05T12:32:22.937Z,8.13
2018-06-05T12:34:51.424Z,7.67
2018-06-05T12:37:19.928Z,8.27
2018-06-05T12:39:49.552Z,7.45
2018-06-05T12:42:17.862Z,7.93
2018-06-05T12:44:46.343Z,8.10
2018-06-05T12:57:45.918Z,8.60
2018-06-05T13:07:56.030Z,8.18
2018-06-05T13:10:24.639Z,7.65
2018-06-05T13:12:53.078Z,8.50
2018-06-05T13:15:21.923Z,7.30
2018-06-05T13:17:50.967Z,6.97
2018-06-05T13:20:19.859Z,7.13
2018-06-05T13:22:48.456Z,7.60
2018-06-05T13:25:17.508Z,6.95
2018-06-05T13:27:45.974Z,6.93
2018-06-05T13:42:13.467Z,7.30
2018-06-05T13:44:43.371Z,7.23
2018-06-05T13:47:11.866Z,7.00
2018-06-05T13:49:40.366Z,8.20
2018-06-05T13:52:08.858Z,7.77
2018-06-05T13:54:37.327Z,7.87
2018-06-05T13:57:05.867Z,7.90
2018-06-05T13:59:37.382Z,8.65
2018-06-05T14:02:05.959Z,7.30
2018-06-05T14:04:34.481Z,8.03
2018-06-05T14:07:02.953Z,7.30
2018-06-05T14:09:31.419Z,7.05
2018-06-05T14:12:02.238Z,7.30
2018-06-05T14:14:30.744Z,7.70
2018-06-05T14:16:59.294Z,7.40
2018-06-05T14:19:27.820Z,7.30
2018-06-05T14:21:56.299Z,6.63
2018-06-05T14:24:24.838Z,6.80
2018-06-05T14:26:54.129Z,6.58
2018-06-05T14:29:23.175Z,6.60
2018-06-05T14:31:51.618Z,6.70
2018-06-05T14:34:20.259Z,7.27
2018-06-05T14:36:48.773Z,7.10
2018-06-05T14:39:17.399Z,6.97
2018-06-05T14:41:45.901Z,7.23
2018-06-05T15:02:24.641Z,7.05
2018-06-05T15:04:53.180Z,7.40
2018-06-05T15:07:21.669Z,7.22
2018-06-05T15:09:50.237Z,7.23
2018-06-05T15:12:18.740Z,7.00
2018-06-05T15:14:47.189Z,7.50
2018-06-05T15:17:17.483Z,7.15
2018-06-05T15:19:45.945Z,6.77
2018-06-05T15:28:12.131Z,7.70
2018-06-05T15:30:40.619Z,6.90
2018-06-05T15:33:09.076Z,6.70
2018-06-05T15:35:37.574Z,6.53
2018-06-05T15:38:06.087Z,7.13
2018-06-05T15:40:35.049Z,7.42
2018-06-05T15:43:03.682Z,7.03
2018-06-05T15:45:32.587Z,7.03
2018-06-05T15:48:01.052Z,7.23
2018-06-05T15:50:29.896Z,7.00
2018-06-05T15:52:59.152Z,6.20
2018-06-05T15:55:27.635Z,6.43
2018-06-05T15:57:56.174Z,6.90
2018-06-05T16:00:24.669Z,6.70
2018-06-05T16:02:53.168Z,6.27
2018-06-05T16:05:21.788Z,6.37
2018-06-05T16:07:50.272Z,6.70
2018-06-05T16:10:18.766Z,6.23
2018-06-05T16:12:47.355Z,6.00
2018-06-05T16:15:17.394Z,6.30
2018-06-05T16:17:46.082Z,6.33
2018-06-05T16:31:34.487Z,6.00
2018-06-05T16:34:02.993Z,6.80
2018-06-05T16:36:31.523Z,6.50
2018-06-05T16:39:00.165Z,7.50
2018-06-05T16:41:28.297Z,6.97
2018-06-05T16:43:56.766Z,6.00
2018-06-05T16:46:25.368Z,6.30
2018-06-05T16:48:54.135Z,6.50
2018-06-05T16:51:22.647Z,6.10
2018-06-05T16:53:51.978Z,6.00
2018-06-05T16:56:20.448Z,5.93
2018-06-05T16:58:48.928Z,6.20
2018-06-05T17:01:17.399Z,6.30
2018-06-05T17:03:45.880Z,6.30
2018-06-05T17:16:54.820Z,5.90
2018-06-05T17:19:23.322Z,6.43
2018-06-05T17:21:51.795Z,7.17
2018-06-05T17:24:20.334Z,7.33
2018-06-05T17:26:48.855Z,6.23
2018-06-05T17:29:17.330Z,7.00
2018-06-05T17:31:45.823Z,7.50
2018-06-05T17:51:49.659Z,7.60
2018-06-05T17:54:19.550Z,8.67
2018-06-05T17:56:50.354Z,7.70
2018-06-05T17:59:18.867Z,9.13
2018-06-05T18:01:47.429Z,9.23
2018-06-05T18:04:17.533Z,8.98
2018-06-05T18:06:46.012Z,8.93
2018-06-05T18:27:33.082Z,8.40
2018-06-05T18:30:01.653Z,9.73
2018-06-05T18:32:30.393Z,8.88
2018-06-05T18:34:59.720Z,9.53
2018-06-05T18:37:28.279Z,8.57
2018-06-05T18:39:56.788Z,9.07
2018-06-05T18:42:25.337Z,9.23
2018-06-05T18:44:54.051Z,9.10
2018-06-05T18:47:22.548Z,9.90
2018-06-05T18:49:51.703Z,9.13
2018-06-05T18:52:19.874Z,8.53
2018-06-05T18:54:49.195Z,9.97
2018-06-05T18:57:18.194Z,9.47
2018-06-05T18:59:46.326Z,9.73
2018-06-05T19:12:48.500Z,10.18
2018-06-05T19:15:17.698Z,10.48
2018-06-05T19:17:46.305Z,10.37
2018-06-05T19:31:35.158Z,9.83
2018-06-05T19:34:03.797Z,11.20
2018-06-05T19:36:32.266Z,10.63
2018-06-05T19:39:00.947Z,10.53
2018-06-05T19:41:29.427Z,11.00
2018-06-05T19:43:58.037Z,11.43
2018-06-05T19:46:26.243Z,11.47
2018-06-05T19:48:54.833Z,10.50
2018-06-05T19:51:23.380Z,12.20
2018-06-05T19:53:51.928Z,11.47
2018-06-05T19:56:21.730Z,11.50
2018-06-05T19:58:50.209Z,11.30
2018-06-05T20:01:18.916Z,12.60
2018-06-05T20:03:47.100Z,12.25
2018-06-05T20:12:32.663Z,11.80
2018-06-05T20:15:01.199Z,12.00
2018-06-05T20:17:29.683Z,12.57
2018-06-05T20:19:57.955Z,11.23
2018-06-05T20:22:26.474Z,10.70
2018-06-05T20:24:55.183Z,11.20
2018-06-05T20:27:23.822Z,10.20
2018-06-05T20:29:52.546Z,10.50
2018-06-05T20:32:21.166Z,10.65
2018-06-05T20:34:49.707Z,11.50
2018-06-05T20:37:18.339Z,10.17
2018-06-05T20:39:46.864Z,9.37
2018-06-05T20:52:43.292Z,11.35
2018-06-05T20:55:11.982Z,10.30
2018-06-05T20:57:41.107Z,11.30
2018-06-05T21:00:09.643Z,10.50
2018-06-05T21:02:39.615Z,12.53
2018-06-05T21:05:08.265Z,10.90
2018-06-05T21:07:36.767Z,11.80
2018-06-05T21:10:05.344Z,11.73
2018-06-05T21:12:33.866Z,12.98
2018-06-05T21:15:02.878Z,11.70
2018-06-05T21:17:31.337Z,13.20
2018-06-05T21:19:59.827Z,13.77
2018-06-05T21:22:28.330Z,12.78
2018-06-05T21:24:56.786Z,12.70
2018-06-05T21:27:25.264Z,13.53
2018-06-05T21:29:53.755Z,12.53
2018-06-05T21:32:22.250Z,14.65
2018-06-05T21:34:50.727Z,13.70
2018-06-05T21:37:19.713Z,13.30
2018-06-05T21:39:48.246Z,15.20
2018-06-05T21:42:17.374Z,15.20
2018-06-05T21:44:45.856Z,15.00
2018-06-05T21:53:24.722Z,13.80
2018-06-05T21:55:53.194Z,16.70
2018-06-05T21:58:23.192Z,16.70
2018-06-05T22:00:51.697Z,16.83
2018-06-05T22:03:20.151Z,16.37
2018-06-05T22:05:48.621Z,15.57
2018-06-05T22:08:17.425Z,17.20
2018-06-05T22:10:45.916Z,16.77
2018-06-05T22:31:36.273Z,15.55
2018-06-05T22:34:04.732Z,18.17
2018-06-05T22:36:33.240Z,17.00
2018-06-05T22:39:01.760Z,17.20
2018-06-05T22:41:30.251Z,18.00
2018-06-05T22:43:58.398Z,16.17
2018-06-05T22:46:26.899Z,17.13
2018-06-05T22:48:55.437Z,16.82
2018-06-05T22:51:23.951Z,17.82
2018-06-05T22:53:52.673Z,17.10
2018-06-05T22:56:21.118Z,17.85
2018-06-05T22:58:50.427Z,17.47
2018-06-05T23:01:18.921Z,17.10
2018-06-05T23:03:47.079Z,17.35
2018-06-05T23:06:16.634Z,16.87
2018-06-05T23:08:45.107Z,16.80
2018-06-05T23:11:22.463Z,18.00
2018-06-05T23:13:51.370Z,18.03
2018-06-05T23:16:19.831Z,17.77
2018-06-05T23:18:48.281Z,18.77
2018-06-05T23:21:18.689Z,18.16
2018-06-05T23:23:47.147Z,18.47
2018-06-05T23:26:16.448Z,17.10
2018-06-05T23:28:44.938Z,19.53
2018-06-05T23:31:13.406Z,17.83
2018-06-05T23:33:41.863Z,19.40
2018-06-05T23:36:10.862Z,19.07
2018-06-05T23:38:39.022Z,18.17
2018-06-05T23:41:07.507Z,19.93
2018-06-05T23:43:35.990Z,20.33
2018-06-05T23:46:04.602Z,19.00
2018-06-05T23:48:33.038Z,20.90
2018-06-05T23:51:01.526Z,20.02
2018-06-05T23:53:29.982Z,20.40
2018-06-05T23:55:58.426Z,20.07
2018-06-05T23:58:26.980Z,20.77
